sensor_id;sensor_type;location;lat;lon;timestamp;P1;durP1;ratioP1;P2;durP2;ratioP2
16308;SDS011;8263;48.880;9.276;2023-12-04T00:02:10;194.15;;;178.07;;
16308;SDS011;8263;48.880;9.276;2023-12-04T00:04:36;194.90;;;178.73;;
16308;SDS011;8263;48.880;9.276;2023-12-04T00:07:03;196.63;;;180.25;;
16308;SDS011;8263;48.880;9.276;2023-12-04T00:09:29;195.80;;;179.57;;
16308;SDS011;8263;48.880;9.276;2023-12-04T00:11:56;194.52;;;178.40;;
16308;SDS011;8263;48.880;9.276;2023-12-04T00:14:22;196.77;;;180.45;;
16308;SDS011;8263;48.880;9.276;2023-12-04T00:16:50;196.55;;;180.23;;
16308;SDS011;8263;48.880;9.276;2023-12-04T00:19:16;197.10;;;180.73;;
16308;SDS011;8263;48.880;9.276;2023-12-04T00:21:42;197.73;;;181.25;;
16308;SDS011;8263;48.880;9.276;2023-12-04T00:24:09;197.32;;;180.40;;
16308;SDS011;8263;48.880;9.276;2023-12-04T00:26:35;194.77;;;178.63;;
16308;SDS011;8263;48.880;9.276;2023-12-04T00:29:02;198.77;;;181.93;;
16308;SDS011;8263;48.880;9.276;2023-12-04T00:31:28;199.73;;;183.13;;
16308;SDS011;8263;48.880;9.276;2023-12-04T00:33:57;198.45;;;181.63;;
16308;SDS011;8263;48.880;9.276;2023-12-04T00:36:24;195.18;;;179.00;;
16308;SDS011;8263;48.880;9.276;2023-12-04T00:38:50;196.88;;;180.55;;
16308;SDS011;8263;48.880;9.276;2023-12-04T00:41:17;198.30;;;181.77;;
16308;SDS011;8263;48.880;9.276;2023-12-04T00:43:43;198.93;;;181.98;;
16308;SDS011;8263;48.880;9.276;2023-12-04T00:46:09;197.07;;;180.70;;
16308;SDS011;8263;48.880;9.276;2023-12-04T00:48:36;197.25;;;180.88;;
16308;SDS011;8263;48.880;9.276;2023-12-04T00:51:04;195.75;;;179.52;;
16308;SDS011;8263;48.880;9.276;2023-12-04T00:53:30;194.85;;;178.65;;
16308;SDS011;8263;48.880;9.276;2023-12-04T00:55:57;195.23;;;178.97;;
16308;SDS011;8263;48.880;9.276;2023-12-04T00:58:23;196.48;;;179.93;;
16308;SDS011;8263;48.880;9.276;2023-12-04T01:00:50;197.27;;;180.90;;
16308;SDS011;8263;48.880;9.276;2023-12-04T01:03:17;197.57;;;181.15;;
16308;SDS011;8263;48.880;9.276;2023-12-04T01:05:43;197.77;;;181.35;;
16308;SDS011;8263;48.880;9.276;2023-12-04T01:08:11;195.95;;;179.70;;
16308;SDS011;8263;48.880;9.276;2023-12-04T01:10:38;197.55;;;181.15;;
16308;SDS011;8263;48.880;9.276;2023-12-04T01:13:04;198.82;;;182.32;;
16308;SDS011;8263;48.880;9.276;2023-12-04T01:15:31;200.05;;;183.43;;
16308;SDS011;8263;48.880;9.276;2023-12-04T01:17:59;199.20;;;182.63;;
16308;SDS011;8263;48.880;9.276;2023-12-04T01:20:25;196.17;;;179.57;;
16308;SDS011;8263;48.880;9.276;2023-12-04T01:22:52;196.50;;;180.18;;
16308;SDS011;8263;48.880;9.276;2023-12-04T01:25:19;201.43;;;184.63;;
16308;SDS011;8263;48.880;9.276;2023-12-04T01:27:46;198.07;;;181.63;;
16308;SDS011;8263;48.880;9.276;2023-12-04T01:30:14;199.00;;;182.30;;
16308;SDS011;8263;48.880;9.276;2023-12-04T01:32:40;196.35;;;180.05;;
16308;SDS011;8263;48.880;9.276;2023-12-04T01:35:06;200.10;;;183.47;;
16308;SDS011;8263;48.880;9.276;2023-12-04T01:37:33;199.07;;;182.48;;
16308;SDS011;8263;48.880;9.276;2023-12-04T01:39:59;196.68;;;180.32;;
16308;SDS011;8263;48.880;9.276;2023-12-04T01:42:27;198.65;;;182.05;;
16308;SDS011;8263;48.880;9.276;2023-12-04T01:44:54;198.83;;;182.30;;
16308;SDS011;8263;48.880;9.276;2023-12-04T01:47:19;199.27;;;182.63;;
16308;SDS011;8263;48.880;9.276;2023-12-04T01:49:46;198.40;;;181.90;;
16308;SDS011;8263;48.880;9.276;2023-12-04T01:52:12;197.68;;;181.23;;
16308;SDS011;8263;48.880;9.276;2023-12-04T01:54:39;197.32;;;180.93;;
16308;SDS011;8263;48.880;9.276;2023-12-04T01:57:05;198.30;;;181.77;;
16308;SDS011;8263;48.880;9.276;2023-12-04T01:59:33;197.73;;;181.27;;
16308;SDS011;8263;48.880;9.276;2023-12-04T02:02:00;198.13;;;181.65;;
16308;SDS011;8263;48.880;9.276;2023-12-04T02:04:27;198.60;;;182.10;;
16308;SDS011;8263;48.880;9.276;2023-12-04T02:06:53;199.77;;;183.10;;
16308;SDS011;8263;48.880;9.276;2023-12-04T02:09:20;198.63;;;181.90;;
16308;SDS011;8263;48.880;9.276;2023-12-04T02:11:46;198.95;;;182.32;;
16308;SDS011;8263;48.880;9.276;2023-12-04T02:14:12;199.63;;;182.80;;
16308;SDS011;8263;48.880;9.276;2023-12-04T02:16:41;199.15;;;182.57;;
16308;SDS011;8263;48.880;9.276;2023-12-04T02:19:08;200.47;;;183.57;;
16308;SDS011;8263;48.880;9.276;2023-12-04T02:21:35;200.90;;;184.13;;
16308;SDS011;8263;48.880;9.276;2023-12-04T02:24:03;200.57;;;183.88;;
16308;SDS011;8263;48.880;9.276;2023-12-04T02:26:31;197.82;;;181.38;;
16308;SDS011;8263;48.880;9.276;2023-12-04T02:28:58;196.30;;;180.00;;
16308;SDS011;8263;48.880;9.276;2023-12-04T02:31:27;200.07;;;183.40;;
16308;SDS011;8263;48.880;9.276;2023-12-04T02:33:55;200.57;;;183.90;;
16308;SDS011;8263;48.880;9.276;2023-12-04T02:36:22;201.75;;;184.93;;
16308;SDS011;8263;48.880;9.276;2023-12-04T02:38:49;199.60;;;183.02;;
16308;SDS011;8263;48.880;9.276;2023-12-04T02:41:17;196.68;;;180.25;;
16308;SDS011;8263;48.880;9.276;2023-12-04T02:43:44;199.73;;;183.10;;
16308;SDS011;8263;48.880;9.276;2023-12-04T02:46:10;199.32;;;182.70;;
16308;SDS011;8263;48.880;9.276;2023-12-04T02:48:37;198.93;;;182.40;;
16308;SDS011;8263;48.880;9.276;2023-12-04T02:51:03;200.10;;;183.47;;
16308;SDS011;8263;48.880;9.276;2023-12-04T02:53:30;199.17;;;182.47;;
16308;SDS011;8263;48.880;9.276;2023-12-04T02:55:56;197.43;;;180.85;;
16308;SDS011;8263;48.880;9.276;2023-12-04T02:58:24;199.02;;;182.48;;
16308;SDS011;8263;48.880;9.276;2023-12-04T03:00:50;196.90;;;180.45;;
16308;SDS011;8263;48.880;9.276;2023-12-04T03:03:17;199.13;;;182.55;;
16308;SDS011;8263;48.880;9.276;2023-12-04T03:05:43;200.53;;;183.83;;
16308;SDS011;8263;48.880;9.276;2023-12-04T03:08:10;196.47;;;180.03;;
16308;SDS011;8263;48.880;9.276;2023-12-04T03:10:36;199.37;;;182.63;;
16308;SDS011;8263;48.880;9.276;2023-12-04T03:13:03;194.90;;;178.70;;
16308;SDS011;8263;48.880;9.276;2023-12-04T03:15:30;198.17;;;181.70;;
16308;SDS011;8263;48.880;9.276;2023-12-04T03:20:23;199.25;;;182.68;;
16308;SDS011;8263;48.880;9.276;2023-12-04T03:22:50;197.57;;;181.18;;
16308;SDS011;8263;48.880;9.276;2023-12-04T03:25:16;200.73;;;184.00;;
16308;SDS011;8263;48.880;9.276;2023-12-04T03:27:43;197.20;;;180.82;;
16308;SDS011;8263;48.880;9.276;2023-12-04T03:30:09;200.10;;;183.43;;
16308;SDS011;8263;48.880;9.276;2023-12-04T03:32:37;200.07;;;183.27;;
16308;SDS011;8263;48.880;9.276;2023-12-04T03:35:04;199.07;;;182.50;;
16308;SDS011;8263;48.880;9.276;2023-12-04T03:37:30;198.43;;;181.70;;
16308;SDS011;8263;48.880;9.276;2023-12-04T03:39:57;197.57;;;181.17;;
16308;SDS011;8263;48.880;9.276;2023-12-04T03:42:23;199.40;;;182.80;;
16308;SDS011;8263;48.880;9.276;2023-12-04T03:44:50;201.13;;;184.40;;
16308;SDS011;8263;48.880;9.276;2023-12-04T03:47:16;200.67;;;183.97;;
16308;SDS011;8263;48.880;9.276;2023-12-04T03:49:44;198.05;;;181.60;;
16308;SDS011;8263;48.880;9.276;2023-12-04T03:52:10;198.77;;;182.27;;
16308;SDS011;8263;48.880;9.276;2023-12-04T03:54:37;198.07;;;181.57;;
16308;SDS011;8263;48.880;9.276;2023-12-04T03:57:03;199.65;;;183.05;;
16308;SDS011;8263;48.880;9.276;2023-12-04T03:59:30;200.88;;;184.07;;
16308;SDS011;8263;48.880;9.276;2023-12-04T04:01:56;202.83;;;185.93;;
16308;SDS011;8263;48.880;9.276;2023-12-04T04:04:23;198.77;;;182.27;;
16308;SDS011;8263;48.880;9.276;2023-12-04T04:06:51;199.13;;;182.57;;
16308;SDS011;8263;48.880;9.276;2023-12-04T04:09:17;197.48;;;181.02;;
16308;SDS011;8263;48.880;9.276;2023-12-04T04:11:45;200.43;;;183.73;;
16308;SDS011;8263;48.880;9.276;2023-12-04T04:14:11;199.93;;;183.27;;
16308;SDS011;8263;48.880;9.276;2023-12-04T04:16:37;198.47;;;181.93;;
16308;SDS011;8263;48.880;9.276;2023-12-04T04:19:04;199.57;;;183.00;;
16308;SDS011;8263;48.880;9.276;2023-12-04T04:21:31;199.35;;;182.65;;
16308;SDS011;8263;48.880;9.276;2023-12-04T04:24:00;201.67;;;184.87;;
16308;SDS011;8263;48.880;9.276;2023-12-04T04:26:27;199.50;;;182.90;;
16308;SDS011;8263;48.880;9.276;2023-12-04T04:28:53;201.40;;;184.57;;
16308;SDS011;8263;48.880;9.276;2023-12-04T04:31:19;197.80;;;181.37;;
16308;SDS011;8263;48.880;9.276;2023-12-04T04:33:46;199.47;;;182.87;;
16308;SDS011;8263;48.880;9.276;2023-12-04T04:36:12;201.40;;;184.60;;
16308;SDS011;8263;48.880;9.276;2023-12-04T04:38:39;197.20;;;180.83;;
16308;SDS011;8263;48.880;9.276;2023-12-04T04:41:07;199.87;;;183.23;;
16308;SDS011;8263;48.880;9.276;2023-12-04T04:43:33;201.03;;;184.33;;
16308;SDS011;8263;48.880;9.276;2023-12-04T04:46:00;197.67;;;181.20;;
16308;SDS011;8263;48.880;9.276;2023-12-04T04:48:26;201.63;;;184.77;;
16308;SDS011;8263;48.880;9.276;2023-12-04T04:50:52;198.40;;;181.87;;
16308;SDS011;8263;48.880;9.276;2023-12-04T04:53:19;202.37;;;185.37;;
16308;SDS011;8263;48.880;9.276;2023-12-04T04:55:46;198.23;;;181.70;;
16308;SDS011;8263;48.880;9.276;2023-12-04T04:58:13;198.00;;;181.52;;
16308;SDS011;8263;48.880;9.276;2023-12-04T05:00:40;200.75;;;184.00;;
16308;SDS011;8263;48.880;9.276;2023-12-04T05:03:06;200.20;;;183.37;;
16308;SDS011;8263;48.880;9.276;2023-12-04T05:05:33;200.53;;;183.83;;
16308;SDS011;8263;48.880;9.276;2023-12-04T05:07:59;200.83;;;184.07;;
16308;SDS011;8263;48.880;9.276;2023-12-04T05:10:25;200.17;;;183.53;;
16308;SDS011;8263;48.880;9.276;2023-12-04T05:12:52;198.37;;;181.87;;
16308;SDS011;8263;48.880;9.276;2023-12-04T05:15:20;199.73;;;183.13;;
16308;SDS011;8263;48.880;9.276;2023-12-04T05:17:46;198.63;;;182.13;;
16308;SDS011;8263;48.880;9.276;2023-12-04T05:20:12;198.50;;;181.97;;
16308;SDS011;8263;48.880;9.276;2023-12-04T05:22:39;200.17;;;183.47;;
16308;SDS011;8263;48.880;9.276;2023-12-04T05:25:06;200.48;;;183.77;;
16308;SDS011;8263;48.880;9.276;2023-12-04T05:27:32;199.45;;;182.77;;
16308;SDS011;8263;48.880;9.276;2023-12-04T05:29:59;198.07;;;181.57;;
16308;SDS011;8263;48.880;9.276;2023-12-04T05:32:27;199.67;;;183.07;;
16308;SDS011;8263;48.880;9.276;2023-12-04T05:34:53;200.23;;;183.53;;
16308;SDS011;8263;48.880;9.276;2023-12-04T05:37:19;201.10;;;184.33;;
16308;SDS011;8263;48.880;9.276;2023-12-04T05:39:46;197.47;;;181.07;;
16308;SDS011;8263;48.880;9.276;2023-12-04T05:42:12;198.57;;;182.03;;
16308;SDS011;8263;48.880;9.276;2023-12-04T05:44:39;197.10;;;180.70;;
16308;SDS011;8263;48.880;9.276;2023-12-04T05:47:05;197.13;;;180.73;;
16308;SDS011;8263;48.880;9.276;2023-12-04T05:49:34;200.37;;;183.67;;
16308;SDS011;8263;48.880;9.276;2023-12-04T05:52:01;198.47;;;181.87;;
16308;SDS011;8263;48.880;9.276;2023-12-04T05:54:27;199.03;;;182.40;;
16308;SDS011;8263;48.880;9.276;2023-12-04T05:56:53;201.07;;;184.30;;
16308;SDS011;8263;48.880;9.276;2023-12-04T05:59:20;200.17;;;183.47;;
16308;SDS011;8263;48.880;9.276;2023-12-04T06:01:46;200.00;;;183.33;;
16308;SDS011;8263;48.880;9.276;2023-12-04T06:04:13;200.50;;;183.80;;
16308;SDS011;8263;48.880;9.276;2023-12-04T06:06:41;199.57;;;182.97;;
16308;SDS011;8263;48.880;9.276;2023-12-04T06:09:07;199.03;;;182.30;;
16308;SDS011;8263;48.880;9.276;2023-12-04T06:11:34;200.40;;;183.70;;
16308;SDS011;8263;48.880;9.276;2023-12-04T06:14:00;201.83;;;184.97;;
16308;SDS011;8263;48.880;9.276;2023-12-04T06:16:26;201.77;;;184.87;;
16308;SDS011;8263;48.880;9.276;2023-12-04T06:18:53;198.80;;;182.27;;
16308;SDS011;8263;48.880;9.276;2023-12-04T06:21:19;198.87;;;182.33;;
16308;SDS011;8263;48.880;9.276;2023-12-04T06:23:47;198.15;;;181.65;;
16308;SDS011;8263;48.880;9.276;2023-12-04T06:26:14;199.37;;;182.77;;
16308;SDS011;8263;48.880;9.276;2023-12-04T06:28:42;199.93;;;183.27;;
16308;SDS011;8263;48.880;9.276;2023-12-04T06:31:09;198.13;;;181.63;;
16308;SDS011;8263;48.880;9.276;2023-12-04T06:33:36;198.07;;;181.57;;
16308;SDS011;8263;48.880;9.276;2023-12-04T06:36:03;199.40;;;182.80;;
16308;SDS011;8263;48.880;9.276;2023-12-04T06:38:31;197.52;;;181.07;;
16308;SDS011;8263;48.880;9.276;2023-12-04T06:41:00;197.40;;;181.00;;
16308;SDS011;8263;48.880;9.276;2023-12-04T06:43:26;198.70;;;182.10;;
16308;SDS011;8263;48.880;9.276;2023-12-04T06:45:53;198.53;;;181.90;;
16308;SDS011;8263;48.880;9.276;2023-12-04T06:48:22;199.73;;;183.10;;
16308;SDS011;8263;48.880;9.276;2023-12-04T06:50:48;199.70;;;183.10;;
16308;SDS011;8263;48.880;9.276;2023-12-04T06:53:15;200.02;;;183.35;;
16308;SDS011;8263;48.880;9.276;2023-12-04T06:55:41;201.27;;;184.50;;
16308;SDS011;8263;48.880;9.276;2023-12-04T06:58:09;202.87;;;185.17;;
16308;SDS011;8263;48.880;9.276;2023-12-04T07:00:36;199.40;;;182.80;;
16308;SDS011;8263;48.880;9.276;2023-12-04T07:03:02;200.17;;;183.27;;
16308;SDS011;8263;48.880;9.276;2023-12-04T07:05:28;198.80;;;182.27;;
16308;SDS011;8263;48.880;9.276;2023-12-04T07:07:55;197.23;;;180.83;;
16308;SDS011;8263;48.880;9.276;2023-12-04T07:10:21;199.47;;;182.83;;
16308;SDS011;8263;48.880;9.276;2023-12-04T07:12:49;200.00;;;182.70;;
16308;SDS011;8263;48.880;9.276;2023-12-04T07:15:17;197.90;;;181.35;;
16308;SDS011;8263;48.880;9.276;2023-12-04T07:17:43;198.20;;;181.40;;
16308;SDS011;8263;48.880;9.276;2023-12-04T07:20:10;195.68;;;179.35;;
16308;SDS011;8263;48.880;9.276;2023-12-04T07:22:37;197.65;;;181.18;;
16308;SDS011;8263;48.880;9.276;2023-12-04T07:25:04;196.95;;;180.52;;
16308;SDS011;8263;48.880;9.276;2023-12-04T07:27:31;198.65;;;182.13;;
16308;SDS011;8263;48.880;9.276;2023-12-04T07:29:58;200.67;;;183.97;;
16308;SDS011;8263;48.880;9.276;2023-12-04T07:35:29;200.30;;;183.60;;
16308;SDS011;8263;48.880;9.276;2023-12-04T07:37:55;197.23;;;180.83;;
16308;SDS011;8263;48.880;9.276;2023-12-04T07:40:22;201.00;;;184.15;;
16308;SDS011;8263;48.880;9.276;2023-12-04T07:42:49;198.57;;;182.07;;
16308;SDS011;8263;48.880;9.276;2023-12-04T07:45:15;196.90;;;180.55;;
16308;SDS011;8263;48.880;9.276;2023-12-04T07:47:42;197.52;;;181.13;;
16308;SDS011;8263;48.880;9.276;2023-12-04T07:50:09;200.07;;;183.32;;
16308;SDS011;8263;48.880;9.276;2023-12-04T07:52:37;196.88;;;180.50;;
16308;SDS011;8263;48.880;9.276;2023-12-04T07:55:03;198.73;;;182.17;;
16308;SDS011;8263;48.880;9.276;2023-12-04T07:57:30;200.40;;;183.70;;
16308;SDS011;8263;48.880;9.276;2023-12-04T07:59:56;195.13;;;178.88;;
16308;SDS011;8263;48.880;9.276;2023-12-04T08:02:23;197.45;;;181.05;;
16308;SDS011;8263;48.880;9.276;2023-12-04T08:04:49;200.25;;;183.55;;
16308;SDS011;8263;48.880;9.276;2023-12-04T08:07:15;198.75;;;182.23;;
16308;SDS011;8263;48.880;9.276;2023-12-04T08:09:43;197.68;;;181.25;;
16308;SDS011;8263;48.880;9.276;2023-12-04T08:12:10;196.98;;;180.43;;
16308;SDS011;8263;48.880;9.276;2023-12-04T08:14:36;199.77;;;183.18;;
16308;SDS011;8263;48.880;9.276;2023-12-04T08:17:03;200.65;;;183.98;;
16308;SDS011;8263;48.880;9.276;2023-12-04T08:19:30;200.37;;;183.67;;
16308;SDS011;8263;48.880;9.276;2023-12-04T08:21:56;196.75;;;180.43;;
16308;SDS011;8263;48.880;9.276;2023-12-04T08:24:23;197.40;;;181.00;;
16308;SDS011;8263;48.880;9.276;2023-12-04T08:26:51;196.30;;;180.00;;
16308;SDS011;8263;48.880;9.276;2023-12-04T08:29:17;197.27;;;180.90;;
16308;SDS011;8263;48.880;9.276;2023-12-04T08:31:44;198.80;;;182.27;;
16308;SDS011;8263;48.880;9.276;2023-12-04T08:34:10;196.43;;;180.10;;
16308;SDS011;8263;48.880;9.276;2023-12-04T08:36:37;197.57;;;181.13;;
16308;SDS011;8263;48.880;9.276;2023-12-04T08:39:03;198.10;;;181.63;;
16308;SDS011;8263;48.880;9.276;2023-12-04T08:41:30;200.15;;;183.50;;
16308;SDS011;8263;48.880;9.276;2023-12-04T08:43:58;197.00;;;180.65;;
16308;SDS011;8263;48.880;9.276;2023-12-04T08:46:24;198.13;;;181.57;;
16308;SDS011;8263;48.880;9.276;2023-12-04T08:48:50;196.52;;;180.18;;
16308;SDS011;8263;48.880;9.276;2023-12-04T08:51:17;197.25;;;180.88;;
16308;SDS011;8263;48.880;9.276;2023-12-04T08:53:44;198.68;;;182.18;;
16308;SDS011;8263;48.880;9.276;2023-12-04T08:56:10;199.70;;;182.70;;
16308;SDS011;8263;48.880;9.276;2023-12-04T08:58:37;195.30;;;179.05;;
16308;SDS011;8263;48.880;9.276;2023-12-04T09:01:05;196.65;;;180.32;;
16308;SDS011;8263;48.880;9.276;2023-12-04T09:03:32;198.50;;;182.00;;
16308;SDS011;8263;48.880;9.276;2023-12-04T09:05:58;197.80;;;181.30;;
16308;SDS011;8263;48.880;9.276;2023-12-04T09:08:25;197.70;;;181.27;;
16308;SDS011;8263;48.880;9.276;2023-12-04T09:10:52;196.13;;;179.82;;
16308;SDS011;8263;48.880;9.276;2023-12-04T09:13:18;195.63;;;179.38;;
16308;SDS011;8263;48.880;9.276;2023-12-04T09:15:45;198.98;;;182.05;;
16308;SDS011;8263;48.880;9.276;2023-12-04T09:18:13;197.68;;;181.00;;
16308;SDS011;8263;48.880;9.276;2023-12-04T09:20:40;198.02;;;181.60;;
16308;SDS011;8263;48.880;9.276;2023-12-04T09:23:07;196.90;;;180.50;;
16308;SDS011;8263;48.880;9.276;2023-12-04T09:25:34;196.90;;;180.52;;
16308;SDS011;8263;48.880;9.276;2023-12-04T09:28:02;199.48;;;182.70;;
16308;SDS011;8263;48.880;9.276;2023-12-04T09:30:29;200.20;;;183.52;;
16308;SDS011;8263;48.880;9.276;2023-12-04T09:32:55;197.48;;;180.95;;
16308;SDS011;8263;48.880;9.276;2023-12-04T09:35:23;197.30;;;180.93;;
16308;SDS011;8263;48.880;9.276;2023-12-04T09:37:49;196.57;;;180.15;;
16308;SDS011;8263;48.880;9.276;2023-12-04T09:40:16;194.82;;;178.68;;
16308;SDS011;8263;48.880;9.276;2023-12-04T09:42:43;195.20;;;178.80;;
16308;SDS011;8263;48.880;9.276;2023-12-04T09:45:10;196.30;;;180.02;;
16308;SDS011;8263;48.880;9.276;2023-12-04T09:47:38;198.85;;;182.32;;
16308;SDS011;8263;48.880;9.276;2023-12-04T09:50:06;197.18;;;180.80;;
16308;SDS011;8263;48.880;9.276;2023-12-04T09:52:35;196.93;;;180.52;;
16308;SDS011;8263;48.880;9.276;2023-12-04T09:55:01;197.27;;;180.32;;
16308;SDS011;8263;48.880;9.276;2023-12-04T09:57:28;196.52;;;180.23;;
16308;SDS011;8263;48.880;9.276;2023-12-04T09:59:54;195.82;;;179.55;;
16308;SDS011;8263;48.880;9.276;2023-12-04T10:02:21;196.55;;;180.23;;
16308;SDS011;8263;48.880;9.276;2023-12-04T10:04:48;197.43;;;181.02;;
16308;SDS011;8263;48.880;9.276;2023-12-04T10:07:14;195.60;;;179.35;;
16308;SDS011;8263;48.880;9.276;2023-12-04T10:09:42;197.07;;;180.73;;
16308;SDS011;8263;48.880;9.276;2023-12-04T10:12:09;196.10;;;179.77;;
16308;SDS011;8263;48.880;9.276;2023-12-04T10:14:35;195.30;;;179.02;;
16308;SDS011;8263;48.880;9.276;2023-12-04T10:17:12;198.18;;;181.65;;
16308;SDS011;8263;48.880;9.276;2023-12-04T10:19:39;197.77;;;181.30;;
16308;SDS011;8263;48.880;9.276;2023-12-04T10:22:06;194.80;;;178.60;;
16308;SDS011;8263;48.880;9.276;2023-12-04T10:24:35;198.75;;;182.15;;
16308;SDS011;8263;48.880;9.276;2023-12-04T10:27:04;194.63;;;178.45;;
16308;SDS011;8263;48.880;9.276;2023-12-04T10:29:40;194.82;;;178.70;;
16308;SDS011;8263;48.880;9.276;2023-12-04T10:32:07;194.68;;;178.52;;
16308;SDS011;8263;48.880;9.276;2023-12-04T10:34:33;196.02;;;179.77;;
16308;SDS011;8263;48.880;9.276;2023-12-04T10:37:00;196.80;;;180.50;;
16308;SDS011;8263;48.880;9.276;2023-12-04T10:39:27;193.40;;;177.43;;
16308;SDS011;8263;48.880;9.276;2023-12-04T10:42:00;197.20;;;180.77;;
16308;SDS011;8263;48.880;9.276;2023-12-04T10:44:29;197.52;;;181.15;;
16308;SDS011;8263;48.880;9.276;2023-12-04T10:46:56;195.00;;;178.85;;
16308;SDS011;8263;48.880;9.276;2023-12-04T10:49:24;195.43;;;179.23;;
16308;SDS011;8263;48.880;9.276;2023-12-04T10:51:51;197.73;;;181.32;;
16308;SDS011;8263;48.880;9.276;2023-12-04T10:54:18;195.52;;;179.32;;
16308;SDS011;8263;48.880;9.276;2023-12-04T10:56:44;193.50;;;177.38;;
16308;SDS011;8263;48.880;9.276;2023-12-04T10:59:13;194.52;;;178.43;;
16308;SDS011;8263;48.880;9.276;2023-12-04T11:01:44;194.38;;;178.27;;
16308;SDS011;8263;48.880;9.276;2023-12-04T11:04:11;194.75;;;178.50;;
16308;SDS011;8263;48.880;9.276;2023-12-04T11:06:42;196.15;;;179.88;;
16308;SDS011;8263;48.880;9.276;2023-12-04T11:09:09;197.18;;;180.60;;
16308;SDS011;8263;48.880;9.276;2023-12-04T11:11:38;195.48;;;179.10;;
16308;SDS011;8263;48.880;9.276;2023-12-04T11:14:06;196.57;;;180.25;;
16308;SDS011;8263;48.880;9.276;2023-12-04T11:16:35;197.40;;;181.02;;
16308;SDS011;8263;48.880;9.276;2023-12-04T11:19:06;197.57;;;181.20;;
16308;SDS011;8263;48.880;9.276;2023-12-04T11:21:37;193.20;;;177.20;;
16308;SDS011;8263;48.880;9.276;2023-12-04T11:24:05;195.30;;;179.10;;
16308;SDS011;8263;48.880;9.276;2023-12-04T11:26:32;194.77;;;178.68;;
16308;SDS011;8263;48.880;9.276;2023-12-04T11:28:59;194.73;;;178.52;;
16308;SDS011;8263;48.880;9.276;2023-12-04T11:31:26;194.57;;;178.45;;
16308;SDS011;8263;48.880;9.276;2023-12-04T11:33:52;194.40;;;178.30;;
16308;SDS011;8263;48.880;9.276;2023-12-04T11:36:20;194.90;;;178.73;;
16308;SDS011;8263;48.880;9.276;2023-12-04T11:38:48;192.98;;;177.00;;
16308;SDS011;8263;48.880;9.276;2023-12-04T11:41:15;194.07;;;177.95;;
16308;SDS011;8263;48.880;9.276;2023-12-04T11:43:42;193.23;;;177.20;;
16308;SDS011;8263;48.880;9.276;2023-12-04T11:46:08;192.88;;;176.90;;
16308;SDS011;8263;48.880;9.276;2023-12-04T11:48:36;194.15;;;178.10;;
16308;SDS011;8263;48.880;9.276;2023-12-04T11:51:02;195.70;;;179.50;;
16308;SDS011;8263;48.880;9.276;2023-12-04T11:53:30;195.43;;;179.18;;
16308;SDS011;8263;48.880;9.276;2023-12-04T11:55:57;194.18;;;177.57;;
16308;SDS011;8263;48.880;9.276;2023-12-04T11:58:24;196.20;;;179.80;;
16308;SDS011;8263;48.880;9.276;2023-12-04T12:00:50;195.27;;;179.10;;
16308;SDS011;8263;48.880;9.276;2023-12-04T12:03:17;193.70;;;177.68;;
16308;SDS011;8263;48.880;9.276;2023-12-04T12:05:44;192.75;;;176.80;;
16308;SDS011;8263;48.880;9.276;2023-12-04T12:08:10;193.82;;;177.80;;
16308;SDS011;8263;48.880;9.276;2023-12-04T12:10:38;194.43;;;178.25;;
16308;SDS011;8263;48.880;9.276;2023-12-04T12:13:05;193.20;;;177.05;;
16308;SDS011;8263;48.880;9.276;2023-12-04T12:15:32;193.05;;;177.10;;
16308;SDS011;8263;48.880;9.276;2023-12-04T12:17:58;192.30;;;176.35;;
16308;SDS011;8263;48.880;9.276;2023-12-04T12:20:25;192.60;;;176.65;;
16308;SDS011;8263;48.880;9.276;2023-12-04T12:22:52;192.25;;;176.35;;
16308;SDS011;8263;48.880;9.276;2023-12-04T12:25:18;195.23;;;179.05;;
16308;SDS011;8263;48.880;9.276;2023-12-04T12:27:46;192.35;;;176.45;;
16308;SDS011;8263;48.880;9.276;2023-12-04T12:30:13;192.57;;;176.65;;
16308;SDS011;8263;48.880;9.276;2023-12-04T12:32:39;192.45;;;176.45;;
16308;SDS011;8263;48.880;9.276;2023-12-04T12:35:06;194.23;;;178.15;;
16308;SDS011;8263;48.880;9.276;2023-12-04T12:37:33;195.68;;;179.43;;
16308;SDS011;8263;48.880;9.276;2023-12-04T12:40:01;189.15;;;173.50;;
16308;SDS011;8263;48.880;9.276;2023-12-04T12:42:29;192.00;;;176.13;;
16308;SDS011;8263;48.880;9.276;2023-12-04T12:44:59;193.57;;;177.55;;
16308;SDS011;8263;48.880;9.276;2023-12-04T12:47:26;194.40;;;178.30;;
16308;SDS011;8263;48.880;9.276;2023-12-04T12:49:52;192.63;;;176.68;;
16308;SDS011;8263;48.880;9.276;2023-12-04T12:52:20;189.52;;;173.88;;
16308;SDS011;8263;48.880;9.276;2023-12-04T12:54:46;189.88;;;174.07;;
16308;SDS011;8263;48.880;9.276;2023-12-04T12:57:13;192.85;;;176.88;;
16308;SDS011;8263;48.880;9.276;2023-12-04T12:59:40;193.15;;;177.00;;
16308;SDS011;8263;48.880;9.276;2023-12-04T13:02:08;191.70;;;175.88;;
16308;SDS011;8263;48.880;9.276;2023-12-04T13:04:35;189.07;;;173.48;;
16308;SDS011;8263;48.880;9.276;2023-12-04T13:07:02;190.23;;;174.32;;
16308;SDS011;8263;48.880;9.276;2023-12-04T13:09:29;191.45;;;175.60;;
16308;SDS011;8263;48.880;9.276;2023-12-04T13:11:55;191.90;;;176.00;;
16308;SDS011;8263;48.880;9.276;2023-12-04T13:14:22;192.32;;;176.45;;
16308;SDS011;8263;48.880;9.276;2023-12-04T13:16:49;190.48;;;174.70;;
16308;SDS011;8263;48.880;9.276;2023-12-04T13:19:17;189.43;;;173.73;;
16308;SDS011;8263;48.880;9.276;2023-12-04T13:21:44;189.80;;;174.05;;
16308;SDS011;8263;48.880;9.276;2023-12-04T13:24:10;192.85;;;176.90;;
16308;SDS011;8263;48.880;9.276;2023-12-04T13:26:37;191.55;;;175.35;;
16308;SDS011;8263;48.880;9.276;2023-12-04T13:29:03;191.18;;;175.32;;
16308;SDS011;8263;48.880;9.276;2023-12-04T13:31:31;191.40;;;175.45;;
16308;SDS011;8263;48.880;9.276;2023-12-04T13:33:57;192.35;;;176.43;;
16308;SDS011;8263;48.880;9.276;2023-12-04T13:36:25;190.05;;;174.18;;
16308;SDS011;8263;48.880;9.276;2023-12-04T13:38:52;192.38;;;176.40;;
16308;SDS011;8263;48.880;9.276;2023-12-04T13:41:19;190.32;;;174.60;;
16308;SDS011;8263;48.880;9.276;2023-12-04T13:44:06;192.32;;;176.40;;
16308;SDS011;8263;48.880;9.276;2023-12-04T13:46:32;193.35;;;177.38;;
16308;SDS011;8263;48.880;9.276;2023-12-04T13:48:59;189.50;;;173.82;;
16308;SDS011;8263;48.880;9.276;2023-12-04T13:51:27;190.15;;;174.45;;
16308;SDS011;8263;48.880;9.276;2023-12-04T13:53:53;190.35;;;174.55;;
16308;SDS011;8263;48.880;9.276;2023-12-04T13:56:26;188.73;;;173.13;;
16308;SDS011;8263;48.880;9.276;2023-12-04T13:59:07;190.98;;;175.18;;
16308;SDS011;8263;48.880;9.276;2023-12-04T14:01:33;191.38;;;175.48;;
16308;SDS011;8263;48.880;9.276;2023-12-04T14:04:06;190.50;;;174.75;;
16308;SDS011;8263;48.880;9.276;2023-12-04T14:06:35;191.30;;;175.48;;
16308;SDS011;8263;48.880;9.276;2023-12-04T14:09:02;189.55;;;173.77;;
16308;SDS011;8263;48.880;9.276;2023-12-04T14:11:29;189.15;;;173.52;;
16308;SDS011;8263;48.880;9.276;2023-12-04T14:13:56;191.98;;;175.88;;